createdAt,value
2023-04-01T00:01:08.195Z,7.22
2023-04-01T00:03:36.492Z,8.07
2023-04-01T00:06:03.913Z,9.55
2023-04-01T00:08:31.486Z,11.15
2023-04-01T00:10:59.257Z,10.60
2023-04-01T00:13:27.375Z,5.55
2023-04-01T00:15:56.135Z,10.85
2023-04-01T00:18:24.393Z,7.57
2023-04-01T00:20:52.981Z,9.77
2023-04-01T00:23:20.202Z,9.70
2023-04-01T00:25:49.111Z,7.82
2023-04-01T00:28:21.273Z,10.25
2023-04-01T00:30:48.686Z,7.82
2023-04-01T00:33:16.584Z,11.57
2023-04-01T00:35:43.379Z,9.50
2023-04-01T00:38:12.329Z,7.90
2023-04-01T00:40:44.644Z,11.15
2023-04-01T00:43:19.475Z,12.02
2023-04-01T00:45:48.573Z,10.23
2023-04-01T00:48:18.673Z,6.63
2023-04-01T00:51:07.910Z,5.85
2023-04-01T00:53:39.768Z,9.32
2023-04-01T00:56:27.970Z,9.35
2023-04-01T00:59:02.657Z,13.23
2023-04-01T01:01:31.690Z,8.52
2023-04-01T01:03:58.534Z,9.35
2023-04-01T01:06:40.114Z,9.95
2023-04-01T01:09:24.032Z,8.93
2023-04-01T01:12:00.896Z,8.80
2023-04-01T01:14:59.457Z,9.15
2023-04-01T01:18:01.276Z,12.82
2023-04-01T01:20:47.027Z,14.05
2023-04-01T01:23:41.239Z,10.35
2023-04-01T01:26:53.321Z,9.35
2023-04-01T01:29:44.803Z,9.57
2023-04-01T01:32:14.530Z,13.40
2023-04-01T01:35:12.292Z,10.65
2023-04-01T01:37:42.117Z,18.27
2023-04-01T01:40:12.708Z,17.60
2023-04-01T01:42:46.832Z,11.00
2023-04-01T01:45:18.976Z,10.57
2023-04-01T01:47:49.531Z,13.52
2023-04-01T01:50:18.232Z,17.42
2023-04-01T01:52:45.266Z,12.90
2023-04-01T01:55:28.638Z,13.25
2023-04-01T01:58:02.837Z,14.23
2023-04-01T02:00:31.150Z,10.57
2023-04-01T02:03:01.949Z,12.90
2023-04-01T02:05:32.110Z,13.38
2023-04-01T02:08:10.527Z,13.38
2023-04-01T02:13:19.833Z,13.20
2023-04-01T02:15:49.979Z,13.05
2023-04-01T02:18:19.254Z,12.02
2023-04-01T02:20:46.706Z,13.27
2023-04-01T02:23:14.710Z,14.85
2023-04-01T02:25:43.854Z,11.90
2023-04-01T02:28:13.737Z,11.00
2023-04-01T02:30:44.109Z,10.50
2023-04-01T02:33:11.598Z,10.65
2023-04-01T02:35:38.711Z,13.15
2023-04-01T02:38:07.840Z,10.10
2023-04-01T02:40:48.240Z,12.80
2023-04-01T02:43:15.734Z,11.77
2023-04-01T02:45:42.815Z,9.45
2023-04-01T02:48:10.300Z,11.55
2023-04-01T02:50:37.114Z,12.77
2023-04-01T02:53:04.881Z,12.43
2023-04-01T02:55:32.487Z,8.07
2023-04-01T02:58:00.202Z,9.20
2023-04-01T03:00:28.797Z,9.43
2023-04-01T03:02:55.897Z,15.55
2023-04-01T03:05:22.771Z,8.18
2023-04-01T03:07:49.894Z,10.25
2023-04-01T03:10:17.096Z,7.57
2023-04-01T03:12:44.032Z,11.52
2023-04-01T03:15:12.836Z,10.32
2023-04-01T03:17:40.811Z,16.17
2023-04-01T03:20:09.619Z,9.43
2023-04-01T03:22:36.712Z,8.25
2023-04-01T03:25:05.234Z,7.35
2023-04-01T03:27:32.852Z,11.18
2023-04-01T03:29:59.597Z,7.53
2023-04-01T03:32:29.028Z,9.63
2023-04-01T03:34:55.813Z,7.40
2023-04-01T03:37:24.028Z,11.30
2023-04-01T03:39:51.372Z,10.70
2023-04-01T03:42:18.158Z,11.02
2023-04-01T03:44:44.950Z,11.20
2023-04-01T03:47:12.441Z,13.27
2023-04-01T03:49:39.488Z,9.48
2023-04-01T03:52:10.666Z,11.77
2023-04-01T03:54:38.042Z,11.75
2023-04-01T03:57:05.494Z,12.93
2023-04-01T03:59:33.641Z,13.05
2023-04-01T04:02:01.019Z,11.73
2023-04-01T04:04:28.828Z,13.40
2023-04-01T04:06:56.117Z,11.90
2023-04-01T04:09:24.261Z,12.18
2023-04-01T04:11:51.076Z,11.18
2023-04-01T04:14:18.450Z,15.20
2023-04-01T04:16:46.992Z,11.90
2023-04-01T04:19:13.794Z,11.90
2023-04-01T04:21:42.233Z,12.98
2023-04-01T04:24:10.499Z,14.48
2023-04-01T04:27:06.586Z,12.65
2023-04-01T04:29:34.772Z,11.52
2023-04-01T04:32:02.033Z,14.43
2023-04-01T04:34:29.108Z,11.80
2023-04-01T04:36:56.270Z,9.30
2023-04-01T04:39:26.286Z,10.63
2023-04-01T04:41:53.308Z,10.35
2023-04-01T04:44:20.016Z,13.13
2023-04-01T04:46:47.035Z,11.68
2023-04-01T04:49:15.546Z,10.52
2023-04-01T04:51:42.597Z,10.32
2023-04-01T04:54:09.976Z,11.55
2023-04-01T04:56:57.893Z,8.75
2023-04-01T04:59:27.171Z,8.07
2023-04-01T05:02:06.190Z,9.40
2023-04-01T05:04:37.709Z,13.27
2023-04-01T05:07:06.684Z,12.20
2023-04-01T05:09:34.946Z,9.23
2023-04-01T05:12:02.606Z,12.32
2023-04-01T05:14:40.324Z,14.25
2023-04-01T05:17:11.677Z,10.50
2023-04-01T05:19:39.048Z,8.68
2023-04-01T05:22:07.217Z,13.68
2023-04-01T05:24:34.464Z,8.25
2023-04-01T05:27:01.264Z,9.15
2023-04-01T05:29:29.624Z,10.52
2023-04-01T05:32:04.178Z,7.32
2023-04-01T05:34:31.280Z,9.48
2023-04-01T05:36:58.025Z,8.10
2023-04-01T05:39:24.930Z,6.45
2023-04-01T05:41:51.698Z,12.18
2023-04-01T05:44:18.895Z,12.20
2023-04-01T05:47:17.780Z,10.90
2023-04-01T05:49:44.571Z,11.00
2023-04-01T05:52:11.482Z,14.55
2023-04-01T05:54:38.532Z,13.50
2023-04-01T05:57:05.504Z,11.45
2023-04-01T05:59:32.469Z,11.40
2023-04-01T06:02:00.012Z,7.55
2023-04-01T06:04:33.928Z,12.00
2023-04-01T06:07:01.006Z,13.13
2023-04-01T06:09:31.304Z,9.35
2023-04-01T06:12:01.505Z,6.75
2023-04-01T06:14:35.586Z,7.90
2023-04-01T06:17:34.219Z,11.68
2023-04-01T06:20:21.174Z,8.63
2023-04-01T06:23:12.767Z,16.15
2023-04-01T06:26:02.880Z,10.52
2023-04-01T06:29:11.254Z,9.93
2023-04-01T06:32:09.436Z,10.05
2023-04-01T06:35:00.369Z,8.57
2023-04-01T06:37:58.616Z,8.55
2023-04-01T06:41:02.771Z,12.23
2023-04-01T06:43:55.469Z,11.18
2023-04-01T06:47:32.282Z,8.63
2023-04-01T06:50:42.788Z,7.43
2023-04-01T06:54:00.758Z,5.40
2023-04-01T06:56:51.874Z,8.60
2023-04-01T06:59:33.263Z,5.50
2023-04-01T07:04:53.908Z,4.47
2023-04-01T07:07:38.838Z,4.50
2023-04-01T07:10:18.959Z,4.63
2023-04-01T07:13:12.580Z,4.45
2023-04-01T07:16:13.908Z,7.25
2023-04-01T07:18:48.712Z,10.15
2023-04-01T07:21:50.158Z,17.42
2023-04-01T07:24:32.974Z,11.85
2023-04-01T07:27:10.499Z,12.60
2023-04-01T07:29:38.756Z,15.65
2023-04-01T07:32:13.801Z,13.35
2023-04-01T07:35:05.829Z,12.15
2023-04-01T07:37:37.866Z,10.30
2023-04-01T07:40:13.495Z,9.80
2023-04-01T07:43:16.147Z,10.77
2023-04-01T07:46:11.222Z,13.98
2023-04-01T07:49:12.850Z,11.30
2023-04-01T07:51:52.596Z,18.52
2023-04-01T07:54:19.849Z,18.45
2023-04-01T07:56:57.843Z,20.13
2023-04-01T08:02:34.477Z,14.63
2023-04-01T08:05:27.063Z,16.77
2023-04-01T08:08:07.341Z,10.63
2023-04-01T08:11:11.370Z,11.02
2023-04-01T08:14:12.630Z,11.82
2023-04-01T08:17:24.972Z,10.80
2023-04-01T08:20:30.948Z,11.77
2023-04-01T08:23:06.673Z,10.80
2023-04-01T08:25:49.156Z,11.80
2023-04-01T08:28:30.582Z,9.13
2023-04-01T08:31:02.621Z,11.68
2023-04-01T08:33:33.691Z,10.85
2023-04-01T08:36:18.291Z,10.70
2023-04-01T08:38:54.544Z,11.55
2023-04-01T08:41:40.268Z,10.77
2023-04-01T08:44:53.336Z,7.22
2023-04-01T08:47:25.803Z,15.88
2023-04-01T08:50:07.954Z,24.27
2023-04-01T08:53:00.589Z,14.90
2023-04-01T08:55:36.794Z,13.65
2023-04-01T08:58:27.433Z,12.57
2023-04-01T09:01:14.128Z,15.60
2023-04-01T09:04:17.678Z,14.55
2023-04-01T09:06:58.690Z,8.93
2023-04-01T09:09:37.829Z,7.93
2023-04-01T09:12:35.326Z,12.55
2023-04-01T09:15:14.436Z,10.43
2023-04-01T09:17:56.677Z,9.70
2023-04-01T09:20:35.723Z,12.55
2023-04-01T09:23:36.695Z,9.30
2023-04-01T09:26:16.359Z,6.95
2023-04-01T09:29:05.414Z,8.45
2023-04-01T09:32:09.664Z,11.25
2023-04-01T09:35:21.822Z,23.20
2023-04-01T09:37:49.230Z,14.07
2023-04-01T09:40:26.670Z,9.20
2023-04-01T09:43:24.035Z,11.50
2023-04-01T09:46:12.497Z,8.48
2023-04-01T09:48:54.364Z,11.07
2023-04-01T09:51:36.302Z,11.70
2023-04-01T09:54:13.975Z,14.00
2023-04-01T09:57:17.562Z,5.93
2023-04-01T10:00:25.312Z,14.57
2023-04-01T10:03:33.396Z,12.25
2023-04-01T10:06:19.018Z,11.27
2023-04-01T10:09:20.721Z,9.77
2023-04-01T10:12:22.559Z,11.02
2023-04-01T10:15:31.053Z,9.70
2023-04-01T10:18:07.497Z,14.07
2023-04-01T10:20:40.436Z,8.60
2023-04-01T10:23:29.654Z,22.83
2023-04-01T10:26:15.668Z,14.02
2023-04-01T10:28:54.677Z,14.38
2023-04-01T10:31:45.049Z,9.20
2023-04-01T10:34:36.095Z,10.95
2023-04-01T10:37:05.561Z,13.13
2023-04-01T10:40:04.012Z,7.05
2023-04-01T10:42:45.084Z,15.95
2023-04-01T10:45:58.918Z,10.25
2023-04-01T10:48:54.407Z,24.13
2023-04-01T10:51:36.781Z,9.38
2023-04-01T10:54:21.714Z,13.57
2023-04-01T10:57:39.564Z,14.15
2023-04-01T11:00:27.853Z,12.45
2023-04-01T11:03:23.702Z,8.75
2023-04-01T11:06:42.672Z,9.50
2023-04-01T11:09:38.888Z,11.32
2023-04-01T11:12:34.535Z,13.18
2023-04-01T11:18:14.863Z,10.23
2023-04-01T11:20:51.334Z,13.48
2023-04-01T11:23:43.998Z,18.80
2023-04-01T11:26:40.414Z,9.02
2023-04-01T11:29:59.079Z,11.13
2023-04-01T11:33:05.845Z,13.18
2023-04-01T11:35:39.158Z,13.82
2023-04-01T11:38:34.599Z,19.13
2023-04-01T11:41:30.697Z,17.38
2023-04-01T11:44:30.429Z,11.57
2023-04-01T11:47:29.976Z,13.38
2023-04-01T11:50:24.787Z,14.27
2023-04-01T11:53:25.484Z,14.52
2023-04-01T11:56:03.874Z,14.02
2023-04-01T11:58:39.523Z,12.00
2023-04-01T12:01:26.303Z,18.20
2023-04-01T12:04:14.492Z,14.07
2023-04-01T12:07:04.260Z,17.60
2023-04-01T12:09:55.664Z,12.32
2023-04-01T12:12:58.368Z,11.48
2023-04-01T12:15:38.975Z,16.98
2023-04-01T12:18:23.832Z,12.98
2023-04-01T12:21:02.810Z,16.38
2023-04-01T12:23:53.566Z,19.02
2023-04-01T12:26:35.129Z,33.72
2023-04-01T12:29:24.699Z,14.23
2023-04-01T12:32:18.244Z,12.43
2023-04-01T12:35:02.012Z,17.13
2023-04-01T12:37:41.192Z,17.10
2023-04-01T12:40:32.737Z,13.75
2023-04-01T12:43:33.941Z,12.20
2023-04-01T12:46:22.161Z,13.20
2023-04-01T12:49:26.422Z,12.77
2023-04-01T12:52:18.356Z,21.38
2023-04-01T12:55:27.013Z,8.02
2023-04-01T12:58:18.138Z,12.10
2023-04-01T13:00:51.070Z,14.35
2023-04-01T13:03:33.006Z,11.40
2023-04-01T13:06:21.406Z,16.55
2023-04-01T13:08:58.740Z,9.52
2023-04-01T13:11:43.750Z,11.80
2023-04-01T13:14:18.491Z,17.42
2023-04-01T13:16:56.888Z,13.70
2023-04-01T13:19:30.649Z,10.60
2023-04-01T13:22:36.599Z,12.18
2023-04-01T13:25:10.820Z,12.13
2023-04-01T13:27:49.498Z,14.60
2023-04-01T13:30:29.002Z,14.98
2023-04-01T13:33:02.513Z,15.82
2023-04-01T13:35:54.668Z,10.98
2023-04-01T13:38:43.091Z,15.48
2023-04-01T13:41:47.402Z,15.07
2023-04-01T13:44:22.642Z,18.55
2023-04-01T13:47:10.544Z,11.43
2023-04-01T13:49:43.372Z,13.40
2023-04-01T13:52:25.439Z,12.60
2023-04-01T13:54:54.901Z,20.58
2023-04-01T13:57:43.573Z,8.88
2023-04-01T14:00:25.652Z,11.30
2023-04-01T14:03:16.740Z,12.05
2023-04-01T14:05:47.512Z,17.00
2023-04-01T14:08:35.372Z,11.43
2023-04-01T14:11:37.525Z,12.45
2023-04-01T14:14:43.380Z,9.07
2023-04-01T14:17:25.495Z,6.30
2023-04-01T14:20:07.772Z,15.00
2023-04-01T14:23:13.918Z,8.52
2023-04-01T14:25:56.381Z,10.13
2023-04-01T14:28:49.990Z,13.13
2023-04-01T14:31:35.569Z,9.55
2023-04-01T14:34:11.037Z,9.32
2023-04-01T14:37:00.747Z,18.63
2023-04-01T14:39:51.793Z,11.13
2023-04-01T14:42:55.783Z,12.73
2023-04-01T14:45:41.641Z,14.23
2023-04-01T14:48:35.803Z,15.60
2023-04-01T14:51:40.014Z,13.93
2023-04-01T14:54:09.430Z,10.98
2023-04-01T14:56:43.162Z,16.80
2023-04-01T14:59:29.494Z,15.85
2023-04-01T15:02:34.023Z,15.27
2023-04-01T15:05:16.669Z,10.63
2023-04-01T15:08:07.163Z,13.57
2023-04-01T15:10:58.862Z,12.32
2023-04-01T15:13:36.714Z,13.25
2023-04-01T15:16:41.191Z,13.43
2023-04-01T15:19:18.777Z,15.15
2023-04-01T15:22:19.911Z,13.80
2023-04-01T15:24:49.113Z,13.00
2023-04-01T15:27:22.631Z,15.38
2023-04-01T15:30:02.332Z,13.63
2023-04-01T15:32:44.314Z,18.52
2023-04-01T15:35:40.157Z,15.85
2023-04-01T15:38:09.717Z,14.10
2023-04-01T15:40:42.181Z,14.25
2023-04-01T15:43:36.670Z,17.98
2023-04-01T15:46:25.103Z,12.60
2023-04-01T15:49:35.957Z,9.75
2023-04-01T15:52:05.927Z,13.48
2023-04-01T15:54:51.594Z,15.60
2023-04-01T15:57:31.448Z,12.63
2023-04-01T16:00:10.848Z,21.08
2023-04-01T16:02:50.692Z,11.73
2023-04-01T16:05:23.458Z,19.63
2023-04-01T16:08:27.803Z,14.70
2023-04-01T16:11:08.407Z,16.27
2023-04-01T16:13:54.029Z,16.85
2023-04-01T16:16:51.095Z,17.02
2023-04-01T16:19:30.355Z,17.35
2023-04-01T16:22:12.370Z,17.58
2023-04-01T16:24:41.919Z,14.77
2023-04-01T16:27:28.417Z,16.30
2023-04-01T16:30:11.485Z,11.27
2023-04-01T16:33:04.544Z,16.88
2023-04-01T16:35:31.392Z,16.13
2023-04-01T16:38:15.988Z,18.08
2023-04-01T16:40:50.562Z,23.20
2023-04-01T16:43:28.115Z,19.02
2023-04-01T16:46:13.196Z,17.67
2023-04-01T16:49:15.023Z,16.55
2023-04-01T16:52:09.483Z,14.88
2023-04-01T16:55:05.189Z,13.27
2023-04-01T17:00:32.234Z,21.23
2023-04-01T17:03:02.132Z,17.58
2023-04-01T17:06:07.331Z,19.92
2023-04-01T17:08:57.264Z,15.63
2023-04-01T17:11:52.476Z,17.02
2023-04-01T17:14:19.211Z,18.50
2023-04-01T17:17:26.248Z,24.58
2023-04-01T17:20:17.748Z,29.02
2023-04-01T17:22:56.985Z,18.25
2023-04-01T17:25:32.731Z,18.15
2023-04-01T17:28:35.934Z,18.73
2023-04-01T17:31:11.511Z,18.58
2023-04-01T17:33:57.005Z,12.85
2023-04-01T17:36:39.717Z,17.30
2023-04-01T17:39:19.143Z,17.15
2023-04-01T17:42:07.568Z,13.25
2023-04-01T17:44:49.801Z,16.35
2023-04-01T17:47:26.687Z,24.52
2023-04-01T17:50:15.059Z,23.35
2023-04-01T17:52:48.574Z,21.92
2023-04-01T17:55:32.621Z,28.35
2023-04-01T17:58:24.213Z,19.83
2023-04-01T18:01:15.776Z,19.70
2023-04-01T18:04:02.516Z,19.00
2023-04-01T18:06:37.202Z,20.95
2023-04-01T18:09:42.437Z,23.50
2023-04-01T18:12:18.319Z,18.27
2023-04-01T18:15:03.939Z,28.23
2023-04-01T18:18:12.138Z,27.88
2023-04-01T18:21:05.343Z,33.78
2023-04-01T18:23:52.143Z,29.20
2023-04-01T18:26:33.313Z,32.88
2023-04-01T18:29:25.633Z,31.05
2023-04-01T18:32:25.992Z,28.13
2023-04-01T18:35:22.217Z,42.30
2023-04-01T18:38:00.439Z,65.25
2023-04-01T18:40:55.444Z,38.33
2023-04-01T18:43:43.672Z,26.75
2023-04-01T18:46:47.828Z,22.85
2023-04-01T18:49:36.760Z,28.48
2023-04-01T18:52:28.728Z,24.35
2023-04-01T18:55:06.310Z,28.58
2023-04-01T18:57:53.980Z,35.90
2023-04-01T19:00:44.227Z,31.77
2023-04-01T19:03:24.253Z,44.33
2023-04-01T19:05:54.878Z,84.20
2023-04-01T19:08:37.144Z,83.70
2023-04-01T19:11:16.212Z,71.28
2023-04-01T19:13:53.275Z,42.85
2023-04-01T19:19:18.929Z,38.50
2023-04-01T19:22:03.727Z,29.23
2023-04-01T19:24:53.093Z,34.90
2023-04-01T19:27:22.834Z,28.70
2023-04-01T19:30:17.130Z,23.60
2023-04-01T19:33:08.505Z,23.02
2023-04-01T19:35:35.427Z,30.08
2023-04-01T19:38:13.495Z,23.48
2023-04-01T19:40:52.551Z,20.65
2023-04-01T19:43:19.493Z,28.60
2023-04-01T19:46:11.298Z,19.55
2023-04-01T19:48:49.714Z,22.88
2023-04-01T19:51:45.833Z,22.13
2023-04-01T19:54:42.449Z,28.70
2023-04-01T19:57:39.473Z,18.05
2023-04-01T20:00:26.141Z,12.02
2023-04-01T20:03:19.374Z,24.05
2023-04-01T20:06:18.751Z,26.33
2023-04-01T20:09:16.475Z,15.52
2023-04-01T20:11:56.151Z,11.40
2023-04-01T20:14:30.361Z,15.38
2023-04-01T20:17:22.177Z,16.05
2023-04-01T20:19:57.859Z,19.25
2023-04-01T20:22:46.342Z,13.30
2023-04-01T20:25:19.188Z,14.40
2023-04-01T20:27:54.838Z,15.80
2023-04-01T20:30:39.918Z,16.10
2023-04-01T20:33:27.867Z,12.98
2023-04-01T20:36:17.150Z,17.40
2023-04-01T20:38:50.433Z,18.02
2023-04-01T20:41:41.455Z,15.15
2023-04-01T20:44:23.548Z,18.40
2023-04-01T20:47:16.313Z,16.40
2023-04-01T20:50:08.114Z,15.38
2023-04-01T20:52:58.678Z,21.77
2023-04-01T20:55:50.070Z,19.10
2023-04-01T20:58:30.652Z,14.32
2023-04-01T21:01:12.847Z,14.85
2023-04-01T21:04:10.055Z,12.35
2023-04-01T21:07:02.537Z,11.38
2023-04-01T21:09:57.029Z,10.27
2023-04-01T21:12:40.934Z,10.98
2023-04-01T21:15:11.073Z,12.75
2023-04-01T21:17:59.430Z,17.20
2023-04-01T21:20:52.223Z,9.60
2023-04-01T21:23:43.870Z,15.18
2023-04-01T21:26:10.834Z,11.52
2023-04-01T21:28:53.628Z,12.90
2023-04-01T21:31:53.334Z,11.73
2023-04-01T21:34:52.797Z,13.18
2023-04-01T21:37:22.778Z,9.00
2023-04-01T21:40:27.171Z,14.00
2023-04-01T21:43:15.416Z,15.25
2023-04-01T21:46:07.152Z,22.33
2023-04-01T21:48:58.227Z,15.00
2023-04-01T21:51:46.735Z,12.88
2023-04-01T21:54:49.130Z,9.95
2023-04-01T21:57:42.351Z,7.03
2023-04-01T22:00:38.990Z,7.60
2023-04-01T22:03:58.434Z,13.55
2023-04-01T22:06:46.632Z,10.20
2023-04-01T22:09:30.628Z,8.50
2023-04-01T22:12:19.276Z,7.82
2023-04-01T22:14:52.141Z,17.50
2023-04-01T22:17:25.164Z,13.52
2023-04-01T22:20:13.756Z,8.82
2023-04-01T22:22:58.184Z,12.13
2023-04-01T22:25:50.827Z,15.75
2023-04-01T22:28:23.372Z,16.63
2023-04-01T22:30:53.968Z,11.55
2023-04-01T22:33:32.233Z,11.50
2023-04-01T22:36:25.088Z,14.93
2023-04-01T22:39:30.089Z,11.70
2023-04-01T22:42:18.469Z,10.88
2023-04-01T22:45:07.145Z,11.95
2023-04-01T22:47:46.247Z,18.17
2023-04-01T22:50:48.516Z,18.50
2023-04-01T22:53:27.469Z,19.92
2023-04-01T22:55:58.416Z,16.50
2023-04-01T22:58:52.044Z,10.48
2023-04-01T23:01:24.732Z,17.15
2023-04-01T23:03:53.146Z,11.38
2023-04-01T23:06:32.126Z,9.50
2023-04-01T23:09:08.971Z,18.45
2023-04-01T23:11:47.120Z,13.00
2023-04-01T23:14:24.752Z,14.23
2023-04-01T23:16:58.512Z,15.40
2023-04-01T23:19:37.703Z,17.08
2023-04-01T23:22:31.614Z,12.65
2023-04-01T23:25:25.136Z,15.75
2023-04-01T23:28:08.108Z,14.63
2023-04-01T23:30:40.936Z,11.07
2023-04-01T23:33:19.913Z,11.07
2023-04-01T23:35:56.350Z,14.10
2023-04-01T23:38:27.213Z,14.73
2023-04-01T23:43:47.616Z,13.43
2023-04-01T23:46:14.509Z,16.27
2023-04-01T23:48:44.449Z,18.20
2023-04-01T23:51:23.349Z,10.13
2023-04-01T23:54:01.075Z,17.63
2023-04-01T23:56:44.461Z,23.42
2023-04-01T23:59:28.541Z,20.38
